createdAt,value
2023-03-14T00:00:12.849Z,9.09
2023-03-14T00:02:40.441Z,9.23
2023-03-14T00:05:07.966Z,9.08
2023-03-14T00:07:36.269Z,9.35
2023-03-14T00:10:05.368Z,9.50
2023-03-14T00:12:33.063Z,9.45
2023-03-14T00:15:01.214Z,9.53
2023-03-14T00:17:28.723Z,9.06
2023-03-14T00:19:55.879Z,8.94
2023-03-14T00:22:23.074Z,8.90
2023-03-14T00:24:50.476Z,8.82
2023-03-14T00:27:17.622Z,8.71
2023-03-14T00:29:46.035Z,8.87
2023-03-14T00:32:13.669Z,9.05
2023-03-14T00:34:41.054Z,8.89
2023-03-14T00:37:08.193Z,8.99
2023-03-14T00:39:35.662Z,8.91
2023-03-14T00:42:02.873Z,9.03
2023-03-14T00:44:30.041Z,9.11
2023-03-14T00:46:58.137Z,8.59
2023-03-14T00:49:26.721Z,8.59
2023-03-14T00:51:53.916Z,8.65
2023-03-14T00:54:21.423Z,8.76
2023-03-14T00:56:48.704Z,8.77
2023-03-14T00:59:16.353Z,8.78
2023-03-14T01:01:43.879Z,8.72
2023-03-14T01:04:11.347Z,8.46
2023-03-14T01:06:38.717Z,9.11
2023-03-14T01:09:06.173Z,8.56
2023-03-14T01:11:34.649Z,8.93
2023-03-14T01:14:02.055Z,9.06
2023-03-14T01:16:31.750Z,8.70
2023-03-14T01:19:01.474Z,8.71
2023-03-14T01:21:29.930Z,8.64
2023-03-14T01:23:58.228Z,8.57
2023-03-14T01:26:26.034Z,8.73
2023-03-14T01:28:54.024Z,8.69
2023-03-14T01:31:22.270Z,8.43
2023-03-14T01:33:49.485Z,8.22
2023-03-14T01:36:16.930Z,8.12
2023-03-14T01:38:44.447Z,8.36
2023-03-14T01:41:22.569Z,8.32
2023-03-14T01:43:51.167Z,8.55
2023-03-14T01:46:18.564Z,8.43
2023-03-14T01:49:04.476Z,8.17
2023-03-14T01:51:35.486Z,8.60
2023-03-14T01:54:07.393Z,8.33
2023-03-14T01:56:35.006Z,8.25
2023-03-14T01:59:02.753Z,8.13
2023-03-14T02:01:29.928Z,8.28
2023-03-14T02:03:57.828Z,8.51
2023-03-14T02:06:27.153Z,8.61
2023-03-14T02:08:56.901Z,8.38
2023-03-14T02:11:25.702Z,8.46
2023-03-14T02:13:54.025Z,8.28
2023-03-14T02:16:22.298Z,8.43
2023-03-14T02:18:50.354Z,8.50
2023-03-14T02:21:23.552Z,8.52
2023-03-14T02:23:57.542Z,8.17
2023-03-14T02:26:28.113Z,7.84
2023-03-14T02:28:55.581Z,7.87
2023-03-14T02:31:22.871Z,8.22
2023-03-14T02:33:50.612Z,7.96
2023-03-14T02:36:17.788Z,7.95
2023-03-14T02:38:44.959Z,8.07
2023-03-14T02:41:12.387Z,7.78
2023-03-14T02:43:40.222Z,7.95
2023-03-14T02:46:10.253Z,8.04
2023-03-14T02:48:41.413Z,8.39
2023-03-14T02:51:10.993Z,8.25
2023-03-14T02:53:38.970Z,8.18
2023-03-14T02:56:06.733Z,8.36
2023-03-14T02:58:34.141Z,8.01
2023-03-14T03:01:02.168Z,8.42
2023-03-14T03:03:29.883Z,8.28
2023-03-14T03:05:57.412Z,8.35
2023-03-14T03:08:26.799Z,8.13
2023-03-14T03:10:54.530Z,8.02
2023-03-14T03:13:21.779Z,8.17
2023-03-14T03:15:50.063Z,8.33
2023-03-14T03:18:17.271Z,7.83
2023-03-14T03:20:44.462Z,8.08
2023-03-14T03:23:11.937Z,8.37
2023-03-14T03:25:39.269Z,8.10
2023-03-14T03:28:09.036Z,8.23
2023-03-14T03:30:40.493Z,8.06
2023-03-14T03:33:07.961Z,7.87
2023-03-14T03:35:35.328Z,8.02
2023-03-14T03:38:02.866Z,8.07
2023-03-14T03:40:30.199Z,8.02
2023-03-14T03:42:57.565Z,8.17
2023-03-14T03:45:25.169Z,8.16
2023-03-14T03:47:52.600Z,8.40
2023-03-14T03:50:19.738Z,8.26
2023-03-14T03:52:47.191Z,8.41
2023-03-14T03:55:14.347Z,9.21
2023-03-14T03:57:41.525Z,8.78
2023-03-14T04:00:12.494Z,8.97
2023-03-14T04:02:41.414Z,8.54
2023-03-14T04:05:10.119Z,8.80
2023-03-14T04:07:37.878Z,8.79
2023-03-14T04:10:05.993Z,8.66
2023-03-14T04:12:33.805Z,9.17
2023-03-14T04:15:01.719Z,9.25
2023-03-14T04:17:29.310Z,8.57
2023-03-14T04:19:56.798Z,8.59
2023-03-14T04:22:25.158Z,8.28
2023-03-14T04:24:52.842Z,8.19
2023-03-14T04:27:20.540Z,8.72
2023-03-14T04:29:48.342Z,8.93
2023-03-14T04:32:15.806Z,9.04
2023-03-14T04:34:43.757Z,8.77
2023-03-14T04:37:11.517Z,8.89
2023-03-14T04:39:40.187Z,9.03
2023-03-14T04:42:07.918Z,9.08
2023-03-14T04:44:37.286Z,8.73
2023-03-14T04:47:04.620Z,8.88
2023-03-14T04:49:32.376Z,8.75
2023-03-14T04:52:00.267Z,8.30
2023-03-14T04:54:28.532Z,8.52
2023-03-14T04:56:56.700Z,8.45
2023-03-14T04:59:24.700Z,8.33
2023-03-14T05:01:52.911Z,8.32
2023-03-14T05:04:20.435Z,8.61
2023-03-14T05:06:48.196Z,8.57
2023-03-14T05:09:16.405Z,8.85
2023-03-14T05:11:44.834Z,8.68
2023-03-14T05:14:12.592Z,9.13
2023-03-14T05:16:40.662Z,8.75
2023-03-14T05:19:08.896Z,8.72
2023-03-14T05:21:36.665Z,8.62
2023-03-14T05:24:04.370Z,8.77
2023-03-14T05:26:32.185Z,8.61
2023-03-14T05:28:59.620Z,8.75
2023-03-14T05:31:27.610Z,8.97
2023-03-14T05:33:55.316Z,9.33
2023-03-14T05:36:23.298Z,9.54
2023-03-14T05:38:51.604Z,8.94
2023-03-14T05:41:19.730Z,9.54
2023-03-14T05:43:47.496Z,9.36
2023-03-14T05:46:15.396Z,8.97
2023-03-14T05:48:43.415Z,8.97
2023-03-14T05:51:10.834Z,8.91
2023-03-14T05:53:38.290Z,9.34
2023-03-14T05:56:11.401Z,9.30
2023-03-14T05:58:39.651Z,9.24
2023-03-14T06:01:07.969Z,8.76
2023-03-14T06:03:36.307Z,9.41
2023-03-14T06:06:04.681Z,9.83
2023-03-14T06:08:32.564Z,9.37
2023-03-14T06:11:00.491Z,9.57
2023-03-14T06:13:28.477Z,9.44
2023-03-14T06:15:55.869Z,9.76
2023-03-14T06:18:23.663Z,9.39
2023-03-14T06:20:56.666Z,9.47
2023-03-14T06:23:26.282Z,9.76
2023-03-14T06:25:54.010Z,9.70
2023-03-14T06:28:21.848Z,10.26
2023-03-14T06:30:49.895Z,10.22
2023-03-14T06:33:17.468Z,10.79
2023-03-14T06:35:45.333Z,10.87
2023-03-14T06:38:13.249Z,11.12
2023-03-14T06:40:40.700Z,11.31
2023-03-14T06:43:09.090Z,11.14
2023-03-14T06:45:37.516Z,11.23
2023-03-14T06:48:05.295Z,11.84
2023-03-14T06:50:33.415Z,11.87
2023-03-14T06:53:01.127Z,11.52
2023-03-14T06:55:30.227Z,11.71
2023-03-14T06:57:57.764Z,11.34
2023-03-14T07:00:26.088Z,11.39
2023-03-14T07:02:53.809Z,11.66
2023-03-14T07:05:22.444Z,12.34
2023-03-14T07:07:50.306Z,11.95
2023-03-14T07:10:18.755Z,12.01
2023-03-14T07:12:46.172Z,12.10
2023-03-14T07:15:18.879Z,12.30
2023-03-14T07:17:49.181Z,12.41
2023-03-14T07:20:18.913Z,12.32
2023-03-14T07:22:49.632Z,12.67
2023-03-14T07:25:18.496Z,12.22
2023-03-14T07:27:46.894Z,12.64
2023-03-14T07:30:15.044Z,13.07
2023-03-14T07:32:42.845Z,13.04
2023-03-14T07:35:10.792Z,13.17
2023-03-14T07:37:38.590Z,12.73
2023-03-14T07:40:08.317Z,13.17
2023-03-14T07:42:36.165Z,13.35
2023-03-14T07:45:10.572Z,13.81
2023-03-14T07:47:38.150Z,13.70
2023-03-14T07:50:06.642Z,14.23
2023-03-14T07:52:35.315Z,13.78
2023-03-14T07:55:02.799Z,13.43
2023-03-14T07:57:30.510Z,13.69
2023-03-14T07:59:58.004Z,12.88
2023-03-14T08:02:25.710Z,12.88
2023-03-14T08:04:53.791Z,13.47
2023-03-14T08:07:21.185Z,13.93
2023-03-14T08:09:48.609Z,14.21
2023-03-14T08:12:17.449Z,14.19
2023-03-14T08:14:45.119Z,14.54
2023-03-14T08:17:12.703Z,14.38
2023-03-14T08:19:42.380Z,14.30
2023-03-14T08:22:09.760Z,14.74
2023-03-14T08:24:37.204Z,14.96
2023-03-14T08:27:05.056Z,15.18
2023-03-14T08:29:32.583Z,15.58
2023-03-14T08:32:00.125Z,15.45
2023-03-14T08:34:27.880Z,15.69
2023-03-14T08:36:57.785Z,15.58
2023-03-14T08:39:25.392Z,15.92
2023-03-14T08:41:52.990Z,15.75
2023-03-14T08:44:20.875Z,16.05
2023-03-14T08:46:48.243Z,15.70
2023-03-14T08:49:15.978Z,15.62
2023-03-14T08:51:43.415Z,15.66
2023-03-14T08:54:11.398Z,15.68
2023-03-14T08:56:39.240Z,15.98
2023-03-14T08:59:06.569Z,15.83
2023-03-14T09:01:33.947Z,16.35
2023-03-14T09:04:01.536Z,17.17
2023-03-14T09:06:34.459Z,16.84
2023-03-14T09:09:02.292Z,16.64
2023-03-14T09:11:29.717Z,16.61
2023-03-14T09:13:57.134Z,16.71
2023-03-14T09:16:25.030Z,17.20
2023-03-14T09:19:00.621Z,17.40
2023-03-14T09:21:28.522Z,17.35
2023-03-14T09:23:55.977Z,17.78
2023-03-14T09:26:23.346Z,17.43
2023-03-14T09:28:51.047Z,18.13
2023-03-14T09:31:18.641Z,17.92
2023-03-14T09:33:46.187Z,18.49
2023-03-14T09:36:13.916Z,19.18
2023-03-14T09:38:41.613Z,18.67
2023-03-14T09:41:16.653Z,18.52
2023-03-14T09:43:46.605Z,19.02
2023-03-14T09:46:15.758Z,18.48
2023-03-14T09:48:44.457Z,18.71
2023-03-14T09:51:15.625Z,18.46
2023-03-14T09:53:45.670Z,18.50
2023-03-14T09:56:32.159Z,18.85
2023-03-14T09:59:01.521Z,19.10
2023-03-14T10:01:32.782Z,19.25
2023-03-14T10:04:05.645Z,19.16
2023-03-14T10:06:33.278Z,19.18
2023-03-14T10:09:02.002Z,19.34
2023-03-14T10:11:29.738Z,18.92
2023-03-14T10:14:09.357Z,19.07
2023-03-14T10:16:41.718Z,19.62
2023-03-14T10:19:14.598Z,19.62
2023-03-14T10:21:53.919Z,20.09
2023-03-14T10:24:33.376Z,19.67
2023-03-14T10:27:03.368Z,19.93
2023-03-14T10:29:32.851Z,19.58
2023-03-14T10:32:06.102Z,19.49
2023-03-14T10:34:36.232Z,19.50
2023-03-14T10:37:19.476Z,19.52
2023-03-14T10:39:49.537Z,19.31
2023-03-14T10:42:34.989Z,19.22
2023-03-14T10:45:11.052Z,19.42
2023-03-14T10:47:50.163Z,19.54
2023-03-14T10:50:25.517Z,19.07
2023-03-14T10:53:03.053Z,19.38
2023-03-14T10:55:40.828Z,19.80
2023-03-14T10:58:40.554Z,20.14
2023-03-14T11:01:27.132Z,20.31
2023-03-14T11:04:02.206Z,20.13
2023-03-14T11:06:54.396Z,19.83
2023-03-14T11:09:48.185Z,19.81
2023-03-14T11:12:47.202Z,19.73
2023-03-14T11:15:38.036Z,20.14
2023-03-14T11:18:21.009Z,19.89
2023-03-14T11:20:57.062Z,20.11
2023-03-14T11:23:30.660Z,20.39
2023-03-14T11:25:58.602Z,19.66
2023-03-14T11:28:39.554Z,19.86
2023-03-14T11:31:28.222Z,19.63
2023-03-14T11:34:03.212Z,19.80
2023-03-14T11:36:40.708Z,19.64
2023-03-14T11:39:17.840Z,19.30
2023-03-14T11:41:49.982Z,19.11
2023-03-14T11:44:25.172Z,19.14
2023-03-14T11:47:11.200Z,19.54
2023-03-14T11:49:50.913Z,19.74
2023-03-14T11:52:18.048Z,19.68
2023-03-14T11:54:53.326Z,19.78
2023-03-14T11:57:21.363Z,19.51
2023-03-14T11:59:58.177Z,19.31
2023-03-14T12:02:27.654Z,19.48
2023-03-14T12:05:18.187Z,19.44
2023-03-14T12:08:05.112Z,19.36
2023-03-14T12:10:37.612Z,19.33
2023-03-14T12:13:04.885Z,19.18
2023-03-14T12:15:32.098Z,19.02
2023-03-14T12:17:59.900Z,18.95
2023-03-14T12:20:27.234Z,19.10
2023-03-14T12:22:57.953Z,19.16
2023-03-14T12:25:26.746Z,19.19
2023-03-14T12:27:57.083Z,19.40
2023-03-14T12:30:28.486Z,19.57
2023-03-14T12:33:11.373Z,19.75
2023-03-14T12:35:39.630Z,19.58
2023-03-14T12:38:17.442Z,19.74
2023-03-14T12:40:53.733Z,19.37
2023-03-14T12:43:31.414Z,19.27
2023-03-14T12:46:08.216Z,19.15
2023-03-14T12:48:35.811Z,19.00
2023-03-14T12:51:02.944Z,18.94
2023-03-14T12:53:49.725Z,18.92
2023-03-14T12:56:36.087Z,18.86
2023-03-14T12:59:21.923Z,18.80
2023-03-14T13:01:54.357Z,18.82
2023-03-14T13:04:36.920Z,18.74
2023-03-14T13:07:11.461Z,18.75
2023-03-14T13:09:50.978Z,18.56
2023-03-14T13:12:19.063Z,18.64
2023-03-14T13:14:47.109Z,18.63
2023-03-14T13:17:34.153Z,18.74
2023-03-14T13:20:06.796Z,18.46
2023-03-14T13:22:34.612Z,18.37
2023-03-14T13:25:03.945Z,18.62
2023-03-14T13:27:31.718Z,18.46
2023-03-14T13:29:58.890Z,18.35
2023-03-14T13:32:30.110Z,18.40
2023-03-14T13:34:58.006Z,18.47
2023-03-14T13:37:26.185Z,18.59
2023-03-14T13:39:56.341Z,18.70
2023-03-14T13:42:27.440Z,18.94
2023-03-14T13:44:54.895Z,18.81
2023-03-14T13:47:22.687Z,18.58
2023-03-14T13:49:50.066Z,18.59
2023-03-14T13:52:29.227Z,18.65
2023-03-14T13:54:56.818Z,18.80
2023-03-14T13:57:26.561Z,18.65
2023-03-14T14:00:07.325Z,18.56
2023-03-14T14:02:34.605Z,18.56
2023-03-14T14:05:02.146Z,18.56
2023-03-14T14:07:29.374Z,19.14
2023-03-14T14:09:56.608Z,19.45
2023-03-14T14:12:28.300Z,19.42
2023-03-14T14:14:56.998Z,19.46
2023-03-14T14:17:29.057Z,19.17
2023-03-14T14:19:57.454Z,19.35
2023-03-14T14:22:24.897Z,19.17
2023-03-14T14:24:52.957Z,19.31
2023-03-14T14:27:27.672Z,19.29
2023-03-14T14:29:59.906Z,19.88
2023-03-14T14:32:27.177Z,19.44
2023-03-14T14:34:59.798Z,19.30
2023-03-14T14:37:30.853Z,19.31
2023-03-14T14:39:58.934Z,19.14
2023-03-14T14:42:34.984Z,18.95
2023-03-14T14:45:03.456Z,18.94
2023-03-14T14:47:30.884Z,18.96
2023-03-14T14:49:59.853Z,19.00
2023-03-14T14:52:43.880Z,19.07
2023-03-14T14:55:17.952Z,18.88
2023-03-14T14:57:52.973Z,18.97
2023-03-14T15:00:21.565Z,19.03
2023-03-14T15:02:50.285Z,18.97
2023-03-14T15:05:18.296Z,18.84
2023-03-14T15:07:45.667Z,19.05
2023-03-14T15:10:13.910Z,18.78
2023-03-14T15:12:41.179Z,18.88
2023-03-14T15:15:08.739Z,18.55
2023-03-14T15:17:37.241Z,18.67
2023-03-14T15:20:08.038Z,18.42
2023-03-14T15:22:35.701Z,18.17
2023-03-14T15:25:03.016Z,18.02
2023-03-14T15:27:30.207Z,17.99
2023-03-14T15:29:57.671Z,17.92
2023-03-14T15:32:24.879Z,17.88
2023-03-14T15:34:52.411Z,17.81
2023-03-14T15:37:20.062Z,17.92
2023-03-14T15:39:47.239Z,17.75
2023-03-14T15:42:14.446Z,17.86
2023-03-14T15:44:41.885Z,17.53
2023-03-14T15:47:10.052Z,17.44
2023-03-14T15:49:37.612Z,16.82
2023-03-14T15:52:05.398Z,16.50
2023-03-14T15:54:32.627Z,16.27
2023-03-14T15:56:59.819Z,16.62
2023-03-14T15:59:27.378Z,16.36
2023-03-14T16:01:54.665Z,16.11
2023-03-14T16:04:22.153Z,16.02
2023-03-14T16:06:49.374Z,15.85
2023-03-14T16:09:18.870Z,15.34
2023-03-14T16:11:47.352Z,15.12
2023-03-14T16:14:14.804Z,15.13
2023-03-14T16:16:42.060Z,15.12
2023-03-14T16:19:09.660Z,15.10
2023-03-14T16:21:38.947Z,15.03
2023-03-14T16:24:07.144Z,14.82
2023-03-14T16:26:36.718Z,15.19
2023-03-14T16:29:03.931Z,15.12
2023-03-14T16:31:31.221Z,14.59
2023-03-14T16:34:03.851Z,14.71
2023-03-14T16:36:31.046Z,14.52
2023-03-14T16:38:58.495Z,13.69
2023-03-14T16:41:26.047Z,14.60
2023-03-14T16:43:54.570Z,14.74
2023-03-14T16:46:27.313Z,14.50
2023-03-14T16:48:54.931Z,14.31
2023-03-14T16:51:23.321Z,14.49
2023-03-14T16:53:50.862Z,13.82
2023-03-14T16:56:18.274Z,14.08
2023-03-14T16:58:46.496Z,13.76
2023-03-14T17:01:14.724Z,13.22
2023-03-14T17:03:43.540Z,13.63
2023-03-14T17:06:11.731Z,13.36
2023-03-14T17:08:38.967Z,13.40
2023-03-14T17:11:07.033Z,13.10
2023-03-14T17:13:34.675Z,13.11
2023-03-14T17:16:02.762Z,12.59
2023-03-14T17:18:31.212Z,13.45
2023-03-14T17:21:07.003Z,12.44
2023-03-14T17:23:36.556Z,12.41
2023-03-14T17:26:05.519Z,12.30
2023-03-14T17:28:34.445Z,12.79
2023-03-14T17:31:08.087Z,12.31
2023-03-14T17:33:36.147Z,12.24
2023-03-14T17:36:04.159Z,12.19
2023-03-14T17:38:32.567Z,12.39
2023-03-14T17:41:00.803Z,12.14
2023-03-14T17:43:28.669Z,12.05
2023-03-14T17:46:01.437Z,12.38
2023-03-14T17:48:35.906Z,12.60
2023-03-14T17:51:04.513Z,12.16
2023-03-14T17:53:32.948Z,11.98
2023-03-14T17:56:01.448Z,12.05
2023-03-14T17:58:30.832Z,12.55
2023-03-14T18:01:00.535Z,12.14
2023-03-14T18:03:32.278Z,12.51
2023-03-14T18:06:00.273Z,11.98
2023-03-14T18:08:31.740Z,11.67
2023-03-14T18:10:59.771Z,11.77
2023-03-14T18:13:28.860Z,11.81
2023-03-14T18:15:58.268Z,11.96
2023-03-14T18:18:27.568Z,11.72
2023-03-14T18:20:56.422Z,11.78
2023-03-14T18:23:25.115Z,11.76
2023-03-14T18:25:53.458Z,12.05
2023-03-14T18:28:23.622Z,11.91
2023-03-14T18:30:55.476Z,11.72
2023-03-14T18:33:24.794Z,11.99
2023-03-14T18:35:53.083Z,11.84
2023-03-14T18:38:25.173Z,12.20
2023-03-14T18:40:54.342Z,12.39
2023-03-14T18:43:24.974Z,12.85
2023-03-14T18:45:53.855Z,12.65
2023-03-14T18:48:25.605Z,12.68
2023-03-14T18:50:56.927Z,12.07
2023-03-14T18:53:32.651Z,11.72
2023-03-14T18:56:05.368Z,12.88
2023-03-14T18:58:33.801Z,11.85
2023-03-14T19:01:04.688Z,11.76
2023-03-14T19:03:34.903Z,11.78
2023-03-14T19:06:04.778Z,11.66
2023-03-14T19:08:35.285Z,11.89
2023-03-14T19:11:07.970Z,11.77
2023-03-14T19:13:36.572Z,11.63
2023-03-14T19:16:05.781Z,12.02
2023-03-14T19:18:35.923Z,11.77
2023-03-14T19:21:14.463Z,12.23
2023-03-14T19:23:43.596Z,11.87
2023-03-14T19:26:17.327Z,12.00
2023-03-14T19:28:46.245Z,12.25
2023-03-14T19:31:15.582Z,12.87
2023-03-14T19:33:43.732Z,13.27
2023-03-14T19:36:23.041Z,11.95
2023-03-14T19:38:51.988Z,11.61
2023-03-14T19:41:21.240Z,12.20
2023-03-14T19:43:50.380Z,11.90
2023-03-14T19:46:19.920Z,13.31
2023-03-14T19:48:49.364Z,12.87
2023-03-14T19:51:19.088Z,11.84
2023-03-14T19:53:47.610Z,11.64
2023-03-14T19:56:16.238Z,11.68
2023-03-14T19:58:46.243Z,11.34
2023-03-14T20:01:17.302Z,11.48
2023-03-14T20:03:46.180Z,12.55
2023-03-14T20:06:16.266Z,13.25
2023-03-14T20:08:46.248Z,13.04
2023-03-14T20:11:15.310Z,12.67
2023-03-14T20:13:45.100Z,12.47
2023-03-14T20:16:13.508Z,12.34
2023-03-14T20:18:42.681Z,11.93
2023-03-14T20:21:14.654Z,12.65
2023-03-14T20:23:44.783Z,12.84
2023-03-14T20:26:13.312Z,12.99
2023-03-14T20:28:43.329Z,11.96
2023-03-14T20:31:13.011Z,11.34
2023-03-14T20:33:44.859Z,11.31
2023-03-14T20:36:14.818Z,11.14
2023-03-14T20:38:50.759Z,11.48
2023-03-14T20:41:19.716Z,11.17
2023-03-14T20:43:48.033Z,11.42
2023-03-14T20:46:17.779Z,11.33
2023-03-14T20:48:46.016Z,11.39
2023-03-14T20:51:15.006Z,11.14
2023-03-14T20:53:43.079Z,11.38
2023-03-14T20:56:14.982Z,10.99
2023-03-14T20:58:47.177Z,11.32
2023-03-14T21:04:01.841Z,11.67
2023-03-14T21:06:32.770Z,11.55
2023-03-14T21:09:05.634Z,11.92
2023-03-14T21:11:36.535Z,12.54
2023-03-14T21:14:04.979Z,12.73
2023-03-14T21:16:33.674Z,12.71
2023-03-14T21:19:03.008Z,12.51
2023-03-14T21:21:30.974Z,12.35
2023-03-14T21:23:59.505Z,12.13
2023-03-14T21:26:27.067Z,12.10
2023-03-14T21:28:54.364Z,12.21
2023-03-14T21:31:22.059Z,11.64
2023-03-14T21:33:49.337Z,11.61
2023-03-14T21:36:16.784Z,11.34
2023-03-14T21:38:44.762Z,10.87
2023-03-14T21:41:11.978Z,10.79
2023-03-14T21:43:41.245Z,10.62
2023-03-14T21:46:08.647Z,10.86
2023-03-14T21:48:36.016Z,10.84
2023-03-14T21:51:05.464Z,10.94
2023-03-14T21:53:33.855Z,10.74
2023-03-14T21:56:01.433Z,10.63
2023-03-14T21:58:28.666Z,11.15
2023-03-14T22:01:00.883Z,10.91
2023-03-14T22:03:28.507Z,10.85
2023-03-14T22:05:55.716Z,10.94
2023-03-14T22:08:22.960Z,11.02
2023-03-14T22:10:50.949Z,10.91
2023-03-14T22:13:18.234Z,10.86
2023-03-14T22:15:46.248Z,10.60
2023-03-14T22:18:14.274Z,10.65
2023-03-14T22:20:41.929Z,11.07
2023-03-14T22:23:09.577Z,11.51
2023-03-14T22:25:41.084Z,11.39
2023-03-14T22:28:08.416Z,12.05
2023-03-14T22:30:35.782Z,12.35
2023-03-14T22:33:03.604Z,11.45
2023-03-14T22:35:30.698Z,10.73
2023-03-14T22:37:57.802Z,11.38
2023-03-14T22:40:25.234Z,11.36
2023-03-14T22:42:52.649Z,11.91
2023-03-14T22:45:19.762Z,11.70
2023-03-14T22:47:47.227Z,11.45
2023-03-14T22:50:14.501Z,10.97
2023-03-14T22:52:41.602Z,11.45
2023-03-14T22:55:09.583Z,11.32
2023-03-14T22:57:37.552Z,11.19
2023-03-14T23:00:08.252Z,11.13
2023-03-14T23:02:35.995Z,11.10
2023-03-14T23:05:03.625Z,11.05
2023-03-14T23:07:31.099Z,10.57
2023-03-14T23:09:58.561Z,10.99
2023-03-14T23:12:26.587Z,10.79
2023-03-14T23:14:54.051Z,10.59
2023-03-14T23:17:21.512Z,10.40
2023-03-14T23:19:49.376Z,10.46
2023-03-14T23:22:16.796Z,10.38
2023-03-14T23:24:49.054Z,10.33
2023-03-14T23:27:18.329Z,10.26
2023-03-14T23:29:46.193Z,10.23
2023-03-14T23:32:15.513Z,10.33
2023-03-14T23:34:43.491Z,10.34
2023-03-14T23:37:13.972Z,10.40
2023-03-14T23:39:41.819Z,10.29
2023-03-14T23:42:09.026Z,10.30
2023-03-14T23:44:36.713Z,10.30
2023-03-14T23:47:03.937Z,10.13
2023-03-14T23:49:31.034Z,10.15
2023-03-14T23:51:58.405Z,10.07
2023-03-14T23:54:25.590Z,10.08
2023-03-14T23:56:52.906Z,9.95
2023-03-14T23:59:20.564Z,10.22
